createdAt,value
2023-03-05T00:01:24.843Z,100123.25
2023-03-05T00:03:53.208Z,100118.88
2023-03-05T00:06:22.127Z,100126.00
2023-03-05T00:08:49.971Z,100133.53
2023-03-05T00:11:17.260Z,100126.69
2023-03-05T00:13:44.184Z,100122.41
2023-03-05T00:16:14.254Z,100117.31
2023-03-05T00:18:41.874Z,100127.06
2023-03-05T00:21:30.668Z,100130.50
2023-03-05T00:24:00.983Z,100123.41
2023-03-05T00:26:29.270Z,100129.41
2023-03-05T00:28:57.538Z,100119.13
2023-03-05T00:31:30.312Z,100123.47
2023-03-05T00:34:03.412Z,100124.19
2023-03-05T00:36:31.247Z,100111.03
2023-03-05T00:38:58.595Z,100109.25
2023-03-05T00:41:25.696Z,100118.88
2023-03-05T00:43:52.602Z,100116.28
2023-03-05T00:46:19.672Z,100110.34
2023-03-05T00:48:46.472Z,100114.66
2023-03-05T00:51:13.528Z,100113.69
2023-03-05T00:53:40.291Z,100113.75
2023-03-05T00:56:07.487Z,100111.09
2023-03-05T00:58:34.319Z,100102.66
2023-03-05T01:01:02.807Z,100099.22
2023-03-05T01:03:30.831Z,100099.25
2023-03-05T01:05:58.543Z,100102.75
2023-03-05T01:08:26.549Z,100094.81
2023-03-05T01:10:53.605Z,100094.66
2023-03-05T01:13:20.765Z,100103.47
2023-03-05T01:15:48.784Z,100109.34
2023-03-05T01:18:15.624Z,100102.91
2023-03-05T01:20:43.359Z,100097.78
2023-03-05T01:23:10.502Z,100107.91
2023-03-05T01:25:37.809Z,100101.78
2023-03-05T01:28:05.101Z,100107.91
2023-03-05T01:30:32.368Z,100097.31
2023-03-05T01:32:59.507Z,100110.44
2023-03-05T01:35:27.158Z,100108.53
2023-03-05T01:37:54.328Z,100101.44
2023-03-05T01:40:26.296Z,100111.75
2023-03-05T01:43:06.659Z,100108.41
2023-03-05T01:45:33.805Z,100109.31
2023-03-05T01:48:00.601Z,100111.88
2023-03-05T01:50:27.963Z,100109.19
2023-03-05T01:53:06.504Z,100106.50
2023-03-05T01:55:37.177Z,100107.41
2023-03-05T01:58:08.803Z,100105.59
2023-03-05T02:00:50.944Z,100099.47
2023-03-05T02:03:18.437Z,100092.63
2023-03-05T02:05:45.472Z,100097.94
2023-03-05T02:08:18.393Z,100106.56
2023-03-05T02:10:51.724Z,100096.38
2023-03-05T02:13:22.687Z,100102.63
2023-03-05T02:15:50.244Z,100100.78
2023-03-05T02:18:18.966Z,100101.63
2023-03-05T02:20:54.066Z,100108.47
2023-03-05T02:23:22.640Z,100108.63
2023-03-05T02:25:50.377Z,100100.88
2023-03-05T02:28:46.390Z,100104.34
2023-03-05T02:31:21.964Z,100107.06
2023-03-05T02:33:49.662Z,100102.53
2023-03-05T02:36:18.170Z,100095.81
2023-03-05T02:38:45.684Z,100103.38
2023-03-05T02:41:14.130Z,100087.94
2023-03-05T02:43:41.354Z,100098.16
2023-03-05T02:46:09.319Z,100099.03
2023-03-05T02:48:36.123Z,100096.53
2023-03-05T02:51:05.531Z,100100.09
2023-03-05T02:53:32.324Z,100099.25
2023-03-05T02:55:59.391Z,100093.88
2023-03-05T02:58:26.273Z,100093.25
2023-03-05T03:00:53.340Z,100089.75
2023-03-05T03:03:20.246Z,100088.16
2023-03-05T03:05:47.276Z,100089.47
2023-03-05T03:08:15.164Z,100081.06
2023-03-05T03:10:42.209Z,100090.66
2023-03-05T03:13:08.927Z,100090.38
2023-03-05T03:15:37.949Z,100087.09
2023-03-05T03:18:04.858Z,100092.97
2023-03-05T03:20:32.767Z,100093.72
2023-03-05T03:22:59.549Z,100093.50
2023-03-05T03:25:26.658Z,100089.28
2023-03-05T03:27:53.443Z,100093.66
2023-03-05T03:30:20.553Z,100085.91
2023-03-05T03:32:47.395Z,100081.44
2023-03-05T03:35:14.543Z,100084.88
2023-03-05T03:37:41.455Z,100084.59
2023-03-05T03:40:09.625Z,100078.59
2023-03-05T03:42:36.371Z,100082.16
2023-03-05T03:45:04.284Z,100087.88
2023-03-05T03:47:31.249Z,100083.63
2023-03-05T03:50:01.643Z,100084.31
2023-03-05T03:52:28.430Z,100086.00
2023-03-05T03:55:01.312Z,100080.97
2023-03-05T03:57:29.775Z,100087.94
2023-03-05T03:59:56.960Z,100086.31
2023-03-05T04:02:23.876Z,100084.38
2023-03-05T04:04:51.065Z,100090.31
2023-03-05T04:07:18.112Z,100079.78
2023-03-05T04:09:45.478Z,100078.38
2023-03-05T04:12:17.592Z,100073.06
2023-03-05T04:14:46.225Z,100074.47
2023-03-05T04:17:13.203Z,100070.28
2023-03-05T04:19:40.701Z,100075.66
2023-03-05T04:22:11.996Z,100082.63
2023-03-05T04:24:39.319Z,100079.94
2023-03-05T04:27:06.428Z,100068.75
2023-03-05T04:29:34.592Z,100075.66
2023-03-05T04:32:01.505Z,100077.47
2023-03-05T04:34:28.839Z,100075.03
2023-03-05T04:36:55.865Z,100074.38
2023-03-05T04:39:22.947Z,100076.75
2023-03-05T04:41:49.779Z,100079.47
2023-03-05T04:44:17.946Z,100077.41
2023-03-05T04:46:44.939Z,100070.56
2023-03-05T04:49:12.093Z,100077.63
2023-03-05T04:51:38.888Z,100076.72
2023-03-05T04:54:06.034Z,100081.03
2023-03-05T04:56:32.944Z,100084.44
2023-03-05T04:59:00.656Z,100066.41
2023-03-05T05:01:27.467Z,100071.38
2023-03-05T05:03:54.605Z,100064.28
2023-03-05T05:06:21.377Z,100073.78
2023-03-05T05:08:48.451Z,100076.25
2023-03-05T05:11:15.360Z,100073.91
2023-03-05T05:13:42.462Z,100066.94
2023-03-05T05:16:09.477Z,100074.38
2023-03-05T05:18:36.645Z,100074.31
2023-03-05T05:21:08.198Z,100073.38
2023-03-05T05:23:36.123Z,100081.84
2023-03-05T05:26:04.972Z,100081.66
2023-03-05T05:28:32.445Z,100085.09
2023-03-05T05:30:59.507Z,100084.69
2023-03-05T05:33:27.060Z,100080.00
2023-03-05T05:35:53.935Z,100078.75
2023-03-05T05:38:21.058Z,100083.47
2023-03-05T05:40:47.815Z,100086.72
2023-03-05T05:43:15.004Z,100089.56
2023-03-05T05:45:41.926Z,100085.97
2023-03-05T05:48:09.042Z,100097.81
2023-03-05T05:50:37.910Z,100115.09
2023-03-05T05:53:05.191Z,100113.75
2023-03-05T05:55:31.962Z,100100.69
2023-03-05T05:57:58.997Z,100100.66
2023-03-05T06:00:25.753Z,100115.09
2023-03-05T06:02:52.841Z,100110.84
2023-03-05T06:05:19.875Z,100126.72
2023-03-05T06:07:46.917Z,100116.84
2023-03-05T06:10:13.864Z,100121.25
2023-03-05T06:12:40.944Z,100115.38
2023-03-05T06:15:08.206Z,100113.19
2023-03-05T06:17:35.478Z,100114.97
2023-03-05T06:20:02.505Z,100117.44
2023-03-05T06:22:29.602Z,100113.19
2023-03-05T06:24:56.357Z,100125.06
2023-03-05T06:27:23.433Z,100125.63
2023-03-05T06:29:53.300Z,100127.31
2023-03-05T06:32:21.133Z,100124.63
2023-03-05T06:34:48.353Z,100114.81
2023-03-05T06:37:15.506Z,100121.63
2023-03-05T06:39:42.306Z,100121.47
2023-03-05T06:42:10.137Z,100117.72
2023-03-05T06:44:41.037Z,100125.81
2023-03-05T06:47:10.541Z,100115.13
2023-03-05T06:49:38.944Z,100125.75
2023-03-05T06:52:07.414Z,100120.31
2023-03-05T06:54:34.418Z,100121.00
2023-03-05T06:57:01.622Z,100122.69
2023-03-05T06:59:28.545Z,100115.06
2023-03-05T07:01:55.649Z,100123.59
2023-03-05T07:04:24.240Z,100113.31
2023-03-05T07:06:51.490Z,100117.72
2023-03-05T07:09:18.265Z,100111.88
2023-03-05T07:11:45.341Z,100116.88
2023-03-05T07:14:12.375Z,100118.00
2023-03-05T07:16:39.522Z,100118.84
2023-03-05T07:19:07.529Z,100118.69
2023-03-05T07:21:36.970Z,100123.00
2023-03-05T07:24:06.424Z,100115.81
2023-03-05T07:26:33.629Z,100122.72
2023-03-05T07:29:01.661Z,100107.94
2023-03-05T07:31:31.745Z,100114.41
2023-03-05T07:34:00.543Z,100109.19
2023-03-05T07:36:28.058Z,100104.63
2023-03-05T07:38:54.879Z,100111.66
2023-03-05T07:41:23.600Z,100115.03
2023-03-05T07:43:53.221Z,100114.84
2023-03-05T07:46:23.021Z,100115.41
2023-03-05T07:48:50.034Z,100114.22
2023-03-05T07:51:19.939Z,100114.38
2023-03-05T07:53:49.206Z,100109.34
2023-03-05T07:56:45.659Z,100110.47
2023-03-05T07:59:13.561Z,100101.16
2023-03-05T08:01:41.148Z,100096.53
2023-03-05T08:04:08.731Z,100092.84
2023-03-05T08:06:38.597Z,100100.19
2023-03-05T08:09:05.551Z,100093.28
2023-03-05T08:11:32.648Z,100093.41
2023-03-05T08:14:00.498Z,100099.78
2023-03-05T08:16:27.722Z,100096.88
2023-03-05T08:18:57.053Z,100099.34
2023-03-05T08:21:35.587Z,100100.78
2023-03-05T08:24:05.371Z,100099.91
2023-03-05T08:26:34.954Z,100094.50
2023-03-05T08:29:03.227Z,100090.19
2023-03-05T08:31:30.811Z,100103.41
2023-03-05T08:33:59.100Z,100097.84
2023-03-05T08:36:26.947Z,100099.50
2023-03-05T08:38:53.834Z,100097.28
2023-03-05T08:41:20.936Z,100102.91
2023-03-05T08:43:51.015Z,100106.69
2023-03-05T08:46:18.379Z,100101.41
2023-03-05T08:48:45.221Z,100097.50
2023-03-05T08:51:14.886Z,100107.38
2023-03-05T08:53:44.199Z,100106.78
2023-03-05T08:56:11.631Z,100098.09
2023-03-05T08:58:38.745Z,100094.56
2023-03-05T09:01:06.237Z,100089.72
2023-03-05T09:03:32.994Z,100085.34
2023-03-05T09:06:05.440Z,100084.19
2023-03-05T09:08:32.360Z,100084.81
2023-03-05T09:11:05.932Z,100088.13
2023-03-05T09:13:33.618Z,100079.75
2023-03-05T09:16:04.041Z,100091.34
2023-03-05T09:18:31.610Z,100085.28
2023-03-05T09:20:59.426Z,100091.13
2023-03-05T09:23:26.222Z,100084.22
2023-03-05T09:25:53.358Z,100078.38
2023-03-05T09:28:20.113Z,100081.50
2023-03-05T09:30:47.572Z,100083.22
2023-03-05T09:33:15.604Z,100082.63
2023-03-05T09:35:42.968Z,100078.38
2023-03-05T09:38:09.905Z,100069.94
2023-03-05T09:40:42.304Z,100071.56
2023-03-05T09:43:17.485Z,100074.91
2023-03-05T09:46:07.367Z,100075.34
2023-03-05T09:48:59.872Z,100067.44
2023-03-05T09:51:35.077Z,100075.53
2023-03-05T09:54:10.909Z,100068.25
2023-03-05T09:56:47.509Z,100059.81
2023-03-05T09:59:23.376Z,100068.66
2023-03-05T10:01:52.945Z,100061.00
2023-03-05T10:04:28.731Z,100059.66
2023-03-05T10:07:08.940Z,100050.03
2023-03-05T10:10:15.729Z,100056.69
2023-03-05T10:12:44.279Z,100046.47
2023-03-05T10:15:39.782Z,100044.09
2023-03-05T10:18:25.095Z,100050.28
2023-03-05T10:20:59.290Z,100046.41
2023-03-05T10:23:44.930Z,100035.56
2023-03-05T10:26:17.335Z,100039.47
2023-03-05T10:29:04.997Z,100040.41
2023-03-05T10:31:40.608Z,100035.16
2023-03-05T10:34:41.519Z,100037.38
2023-03-05T10:37:44.643Z,100041.25
2023-03-05T10:40:22.092Z,100021.75
2023-03-05T10:43:10.358Z,100029.59
2023-03-05T10:45:43.508Z,100023.75
2023-03-05T10:48:12.930Z,100020.09
2023-03-05T10:50:48.569Z,100018.38
2023-03-05T10:53:27.914Z,100018.88
2023-03-05T10:55:56.654Z,100019.00
2023-03-05T10:58:25.198Z,100019.13
2023-03-05T11:01:24.359Z,100020.91
2023-03-05T11:03:51.183Z,100009.84
2023-03-05T11:06:30.536Z,100019.00
2023-03-05T11:09:19.237Z,100009.09
2023-03-05T11:12:08.595Z,100012.13
2023-03-05T11:14:39.148Z,100002.72
2023-03-05T11:17:44.922Z,99996.91
2023-03-05T11:20:20.628Z,99986.38
2023-03-05T11:23:13.870Z,99976.25
2023-03-05T11:26:01.954Z,99986.44
2023-03-05T11:28:35.891Z,99983.56
2023-03-05T11:31:18.316Z,99989.13
2023-03-05T11:34:03.417Z,99981.81
2023-03-05T11:36:33.424Z,99980.13
2023-03-05T11:39:06.526Z,99976.66
2023-03-05T11:41:33.266Z,99979.84
2023-03-05T11:44:03.833Z,99975.84
2023-03-05T11:46:47.952Z,99986.56
2023-03-05T11:49:20.690Z,99969.59
2023-03-05T11:52:08.142Z,99966.16
2023-03-05T11:54:54.934Z,99965.41
2023-03-05T11:57:24.202Z,99957.28
2023-03-05T11:59:55.024Z,99949.91
2023-03-05T12:02:27.677Z,99944.94
2023-03-05T12:04:56.334Z,99955.63
2023-03-05T12:07:34.929Z,99950.38
2023-03-05T12:10:02.785Z,99948.94
2023-03-05T12:12:48.735Z,99941.13
2023-03-05T12:15:18.695Z,99945.97
2023-03-05T12:18:23.166Z,99930.28
2023-03-05T12:20:58.677Z,99929.22
2023-03-05T12:23:28.007Z,99918.84
2023-03-05T12:26:00.141Z,99916.69
2023-03-05T12:28:36.128Z,99911.75
2023-03-05T12:31:44.261Z,99913.81
2023-03-05T12:34:45.841Z,99905.81
2023-03-05T12:37:33.083Z,99897.97
2023-03-05T12:40:08.567Z,99891.28
2023-03-05T12:42:58.869Z,99883.34
2023-03-05T12:45:34.090Z,99877.06
2023-03-05T12:48:01.072Z,99887.03
2023-03-05T12:50:27.774Z,99887.28
2023-03-05T12:52:58.285Z,99885.84
2023-03-05T12:55:34.161Z,99878.28
2023-03-05T12:58:07.275Z,99877.06
2023-03-05T13:00:43.246Z,99875.88
2023-03-05T13:03:18.129Z,99879.16
2023-03-05T13:05:51.468Z,99877.75
2023-03-05T13:08:21.165Z,99873.59
2023-03-05T13:10:58.968Z,99881.03
2023-03-05T13:13:29.376Z,99875.34
2023-03-05T13:15:57.334Z,99869.06
2023-03-05T13:18:30.157Z,99878.84
2023-03-05T13:21:06.184Z,99880.72
2023-03-05T13:23:35.066Z,99870.59
2023-03-05T13:26:15.214Z,99875.84
2023-03-05T13:28:44.963Z,99865.88
2023-03-05T13:31:18.560Z,99868.97
2023-03-05T13:33:55.863Z,99880.84
2023-03-05T13:36:25.064Z,99868.75
2023-03-05T13:38:53.355Z,99854.34
2023-03-05T13:41:24.848Z,99851.63
2023-03-05T13:44:00.645Z,99870.59
2023-03-05T13:46:29.418Z,99869.38
2023-03-05T13:48:57.637Z,99865.75
2023-03-05T13:51:40.324Z,99864.44
2023-03-05T13:54:10.271Z,99863.44
2023-03-05T13:56:37.021Z,99865.94
2023-03-05T13:59:05.532Z,99865.50
2023-03-05T14:01:36.878Z,99861.19
2023-03-05T14:04:12.782Z,99863.25
2023-03-05T14:06:46.759Z,99855.38
2023-03-05T14:09:26.067Z,99858.03
2023-03-05T14:11:54.000Z,99859.88
2023-03-05T14:14:23.299Z,99864.44
2023-03-05T14:16:50.354Z,99866.50
2023-03-05T14:19:34.802Z,99867.69
2023-03-05T14:22:01.962Z,99868.66
2023-03-05T14:24:31.303Z,99857.09
2023-03-05T14:27:13.333Z,99863.22
2023-03-05T14:29:46.607Z,99863.59
2023-03-05T14:32:28.246Z,99841.25
2023-03-05T14:34:58.566Z,99838.47
2023-03-05T14:37:36.116Z,99844.16
2023-03-05T14:40:09.949Z,99835.38
2023-03-05T14:43:00.701Z,99843.03
2023-03-05T14:45:37.393Z,99839.75
2023-03-05T14:48:06.583Z,99825.75
2023-03-05T14:50:37.114Z,99825.13
2023-03-05T14:53:09.363Z,99811.00
2023-03-05T14:55:38.375Z,99797.34
2023-03-05T14:58:15.410Z,99810.66
2023-03-05T15:00:43.676Z,99808.19
2023-03-05T15:03:12.136Z,99818.28
2023-03-05T15:05:39.466Z,99802.88
2023-03-05T15:08:06.413Z,99812.03
2023-03-05T15:10:33.516Z,99816.59
2023-03-05T15:13:00.342Z,99815.97
2023-03-05T15:15:27.493Z,99821.69
2023-03-05T15:17:57.532Z,99825.94
2023-03-05T15:20:27.328Z,99823.13
2023-03-05T15:22:54.657Z,99820.31
2023-03-05T15:25:25.624Z,99821.47
2023-03-05T15:27:53.040Z,99823.22
2023-03-05T15:30:33.346Z,99823.38
2023-03-05T15:33:06.682Z,99821.94
2023-03-05T15:35:33.786Z,99812.34
2023-03-05T15:38:00.765Z,99824.31
2023-03-05T15:40:28.869Z,99822.59
2023-03-05T15:42:57.521Z,99826.56
2023-03-05T15:45:25.207Z,99820.47
2023-03-05T15:47:53.536Z,99822.38
2023-03-05T15:50:22.211Z,99832.88
2023-03-05T15:52:49.619Z,99832.03
2023-03-05T15:55:18.337Z,99827.38
2023-03-05T15:57:47.877Z,99829.19
2023-03-05T16:00:18.240Z,99837.81
2023-03-05T16:02:45.019Z,99835.50
2023-03-05T16:05:12.168Z,99836.75
2023-03-05T16:07:42.203Z,99840.19
2023-03-05T16:10:17.557Z,99841.03
2023-03-05T16:12:46.319Z,99841.03
2023-03-05T16:15:19.721Z,99841.63
2023-03-05T16:17:50.827Z,99856.56
2023-03-05T16:20:18.237Z,99849.44
2023-03-05T16:22:45.054Z,99855.75
2023-03-05T16:25:12.620Z,99853.81
2023-03-05T16:27:39.415Z,99857.13
2023-03-05T16:30:07.153Z,99855.34
2023-03-05T16:32:34.234Z,99852.03
2023-03-05T16:35:01.334Z,99854.63
2023-03-05T16:37:28.105Z,99857.13
2023-03-05T16:39:58.957Z,99858.03
2023-03-05T16:42:25.944Z,99853.50
2023-03-05T16:44:53.189Z,99861.44
2023-03-05T16:47:20.056Z,99849.72
2023-03-05T16:49:47.061Z,99853.44
2023-03-05T16:52:19.061Z,99854.69
2023-03-05T16:54:47.055Z,99861.56
2023-03-05T16:57:14.359Z,99864.03
2023-03-05T16:59:42.117Z,99855.81
2023-03-05T17:02:09.471Z,99858.22
2023-03-05T17:04:37.131Z,99857.84
2023-03-05T17:07:05.492Z,99858.06
2023-03-05T17:09:32.772Z,99858.91
2023-03-05T17:11:59.688Z,99852.28
2023-03-05T17:14:26.999Z,99864.34
2023-03-05T17:16:53.982Z,99869.44
2023-03-05T17:19:21.116Z,99872.41
2023-03-05T17:21:51.101Z,99871.69
2023-03-05T17:24:21.494Z,99863.81
2023-03-05T17:26:50.043Z,99872.84
2023-03-05T17:29:18.975Z,99867.19
2023-03-05T17:31:46.769Z,99865.38
2023-03-05T17:34:14.659Z,99865.72
2023-03-05T17:36:41.614Z,99873.78
2023-03-05T17:39:08.904Z,99864.94
2023-03-05T17:41:35.850Z,99860.06
2023-03-05T17:44:03.424Z,99872.53
2023-03-05T17:46:30.234Z,99879.53
2023-03-05T17:48:57.281Z,99885.13
2023-03-05T17:51:24.084Z,99886.09
2023-03-05T17:53:51.174Z,99886.03
2023-03-05T17:56:21.956Z,99882.38
2023-03-05T17:58:49.933Z,99881.03
2023-03-05T18:01:24.861Z,99882.22
2023-03-05T18:03:52.063Z,99878.06
2023-03-05T18:06:19.048Z,99881.50
2023-03-05T18:08:46.138Z,99877.38
2023-03-05T18:11:13.165Z,99879.91
2023-03-05T18:13:40.629Z,99870.88
2023-03-05T18:16:07.445Z,99872.47
2023-03-05T18:18:34.896Z,99873.47
2023-03-05T18:21:01.672Z,99879.06
2023-03-05T18:23:28.787Z,99869.66
2023-03-05T18:25:55.540Z,99866.19
2023-03-05T18:28:22.742Z,99873.94
2023-03-05T18:30:49.886Z,99860.75
2023-03-05T18:33:22.808Z,99869.53
2023-03-05T18:35:52.424Z,99868.72
2023-03-05T18:38:22.080Z,99874.69
2023-03-05T18:40:51.386Z,99866.75
2023-03-05T18:43:20.653Z,99876.66
2023-03-05T18:45:52.972Z,99868.94
2023-03-05T18:48:21.078Z,99868.28
2023-03-05T18:50:54.282Z,99870.09
2023-03-05T18:53:22.134Z,99866.88
2023-03-05T18:55:51.357Z,99865.78
2023-03-05T18:58:19.120Z,99868.41
2023-03-05T19:00:47.158Z,99865.13
2023-03-05T19:03:16.107Z,99856.31
2023-03-05T19:05:43.542Z,99860.88
2023-03-05T19:08:10.758Z,99864.19
2023-03-05T19:10:37.771Z,99868.06
2023-03-05T19:13:40.023Z,99862.19
2023-03-05T19:16:30.203Z,99869.28
2023-03-05T19:19:25.408Z,99873.56
2023-03-05T19:21:54.912Z,99862.03
2023-03-05T19:24:23.901Z,99864.72
2023-03-05T19:26:55.251Z,99859.41
2023-03-05T19:29:24.014Z,99859.56
2023-03-05T19:31:52.034Z,99869.38
2023-03-05T19:34:20.693Z,99867.53
2023-03-05T19:36:48.012Z,99862.47
2023-03-05T19:39:15.582Z,99864.06
2023-03-05T19:41:42.674Z,99868.59
2023-03-05T19:44:09.772Z,99854.66
2023-03-05T19:46:36.750Z,99860.72
2023-03-05T19:49:04.525Z,99865.16
2023-03-05T19:51:31.280Z,99856.25
2023-03-05T19:53:58.393Z,99859.63
2023-03-05T19:56:25.745Z,99863.19
2023-03-05T19:58:52.823Z,99862.75
2023-03-05T20:01:27.818Z,99871.25
2023-03-05T20:03:58.070Z,99859.50
2023-03-05T20:06:26.394Z,99858.56
2023-03-05T20:08:53.911Z,99863.50
2023-03-05T20:11:22.240Z,99855.50
2023-03-05T20:13:49.908Z,99856.13
2023-03-05T20:16:25.562Z,99856.25
2023-03-05T20:18:54.957Z,99853.03
2023-03-05T20:21:34.614Z,99853.03
2023-03-05T20:24:04.495Z,99846.34
2023-03-05T20:26:34.262Z,99845.34
2023-03-05T20:29:02.546Z,99846.94
2023-03-05T20:31:29.382Z,99848.59
2023-03-05T20:33:56.620Z,99852.81
2023-03-05T20:36:24.168Z,99843.31
2023-03-05T20:38:51.275Z,99844.78
2023-03-05T20:41:20.852Z,99851.91
2023-03-05T20:43:50.050Z,99848.66
2023-03-05T20:46:20.244Z,99843.03
2023-03-05T20:48:49.793Z,99848.81
2023-03-05T20:51:22.636Z,99847.97
2023-03-05T20:53:51.476Z,99845.44
2023-03-05T20:56:18.255Z,99841.00
2023-03-05T20:58:45.520Z,99837.47
2023-03-05T21:01:12.461Z,99840.03
2023-03-05T21:03:40.358Z,99844.44
2023-03-05T21:06:07.885Z,99830.56
2023-03-05T21:08:34.964Z,99842.63
2023-03-05T21:11:08.061Z,99838.88
2023-03-05T21:13:35.355Z,99837.81
2023-03-05T21:16:09.467Z,99834.47
2023-03-05T21:18:36.868Z,99838.94
2023-03-05T21:21:03.750Z,99832.34
2023-03-05T21:23:31.032Z,99833.97
2023-03-05T21:25:57.883Z,99828.81
2023-03-05T21:28:24.945Z,99831.06
2023-03-05T21:30:54.025Z,99830.00
2023-03-05T21:33:23.855Z,99834.66
2023-03-05T21:35:56.485Z,99832.94
2023-03-05T21:38:25.591Z,99838.22
2023-03-05T21:40:53.925Z,99842.47
2023-03-05T21:43:23.600Z,99833.06
2023-03-05T21:45:53.590Z,99837.47
2023-03-05T21:48:21.956Z,99829.78
2023-03-05T21:50:49.381Z,99828.13
2023-03-05T21:53:17.870Z,99822.13
2023-03-05T21:56:31.088Z,99827.13
2023-03-05T21:58:58.234Z,99819.38
2023-03-05T22:01:25.026Z,99819.25
2023-03-05T22:03:52.261Z,99826.97
2023-03-05T22:06:20.121Z,99818.53
2023-03-05T22:08:47.666Z,99816.41
2023-03-05T22:11:17.286Z,99818.47
2023-03-05T22:13:44.522Z,99817.31
2023-03-05T22:16:11.681Z,99817.31
2023-03-05T22:18:38.896Z,99813.06
2023-03-05T22:21:05.914Z,99820.16
2023-03-05T22:23:36.897Z,99809.97
2023-03-05T22:26:06.219Z,99806.28
2023-03-05T22:28:34.504Z,99801.97
2023-03-05T22:31:01.671Z,99806.13
2023-03-05T22:33:29.112Z,99800.47
2023-03-05T22:35:56.363Z,99791.28
2023-03-05T22:38:25.367Z,99804.53
2023-03-05T22:40:52.482Z,99796.72
2023-03-05T22:43:20.582Z,99793.28
2023-03-05T22:45:47.615Z,99790.53
2023-03-05T22:48:15.102Z,99787.03
2023-03-05T22:50:43.962Z,99794.91
2023-03-05T22:53:12.116Z,99785.63
2023-03-05T22:55:42.595Z,99779.38
2023-03-05T22:58:10.003Z,99782.78
2023-03-05T23:00:36.893Z,99785.38
2023-03-05T23:03:05.090Z,99779.75
2023-03-05T23:05:31.917Z,99779.47
2023-03-05T23:07:58.960Z,99782.16
2023-03-05T23:10:28.674Z,99788.28
2023-03-05T23:12:57.980Z,99780.53
2023-03-05T23:15:30.663Z,99781.25
2023-03-05T23:17:58.520Z,99776.38
2023-03-05T23:20:29.593Z,99776.78
2023-03-05T23:22:57.103Z,99779.00
2023-03-05T23:25:26.672Z,99778.84
2023-03-05T23:27:53.941Z,99775.94
2023-03-05T23:30:25.776Z,99780.38
2023-03-05T23:32:57.327Z,99782.38
2023-03-05T23:35:32.959Z,99769.75
2023-03-05T23:38:02.073Z,99774.09
2023-03-05T23:40:32.221Z,99778.16
2023-03-05T23:43:00.017Z,99777.50
2023-03-05T23:45:28.034Z,99774.09
2023-03-05T23:47:55.441Z,99779.31
2023-03-05T23:50:26.133Z,99778.53
2023-03-05T23:52:56.304Z,99777.50
2023-03-05T23:55:25.857Z,99763.34
2023-03-05T23:57:53.688Z,99764.34
